createdAt,value
2022-12-12T00:01:31.350Z,96108.55
2022-12-12T00:04:00.044Z,96115.95
2022-12-12T00:06:28.531Z,96125.17
2022-12-12T00:08:56.691Z,96132.33
2022-12-12T00:11:25.441Z,96132.33
2022-12-12T00:13:54.065Z,96148.44
2022-12-12T00:16:23.768Z,96162.34
2022-12-12T00:18:52.089Z,96167.49
2022-12-12T00:21:23.980Z,96167.41
2022-12-12T00:23:52.417Z,96178.05
2022-12-12T00:26:28.046Z,96183.95
2022-12-12T00:28:57.376Z,96189.76
2022-12-12T00:31:26.221Z,96181.51
2022-12-12T00:33:53.975Z,96180.59
2022-12-12T00:36:27.674Z,96176.55
2022-12-12T00:38:56.194Z,96174.66
2022-12-12T00:41:24.496Z,96180.55
2022-12-12T00:43:52.047Z,96187.70
2022-12-12T00:46:23.713Z,96182.36
2022-12-12T00:48:55.553Z,96189.54
2022-12-12T00:51:25.428Z,96195.91
2022-12-12T00:53:53.674Z,96192.16
2022-12-12T00:56:22.807Z,96192.63
2022-12-12T00:58:51.918Z,96194.11
2022-12-12T01:01:24.538Z,96176.01
2022-12-12T01:03:53.572Z,96179.52
2022-12-12T01:06:22.848Z,96180.12
2022-12-12T01:08:50.885Z,96182.24
2022-12-12T01:11:19.406Z,96188.74
2022-12-12T01:13:48.775Z,96178.84
2022-12-12T01:16:16.824Z,96193.66
2022-12-12T01:18:44.523Z,96187.59
2022-12-12T01:21:15.576Z,96183.05
2022-12-12T01:23:43.492Z,96179.83
2022-12-12T01:26:15.838Z,96169.93
2022-12-12T01:28:44.860Z,96187.59
2022-12-12T01:31:13.287Z,96192.69
2022-12-12T01:33:43.474Z,96200.23
2022-12-12T01:36:16.859Z,96194.16
2022-12-12T01:38:50.606Z,96184.66
2022-12-12T01:41:18.519Z,96180.19
2022-12-12T01:43:47.814Z,96181.28
2022-12-12T01:46:45.266Z,96182.98
2022-12-12T01:49:27.188Z,96182.36
2022-12-12T01:51:59.380Z,96190.28
2022-12-12T01:54:31.765Z,96184.86
2022-12-12T01:57:04.334Z,96186.14
2022-12-12T01:59:38.950Z,96193.80
2022-12-12T02:02:09.011Z,96195.08
2022-12-12T02:04:41.582Z,96203.02
2022-12-12T02:07:09.839Z,96189.97
2022-12-12T02:09:38.777Z,96188.81
2022-12-12T02:12:06.828Z,96195.86
2022-12-12T02:14:42.304Z,96198.53
2022-12-12T02:17:48.389Z,96188.63
2022-12-12T02:20:51.866Z,96201.44
2022-12-12T02:23:57.220Z,96204.11
2022-12-12T02:26:39.728Z,96207.09
2022-12-12T02:29:28.199Z,96203.32
2022-12-12T02:32:23.376Z,96215.03
2022-12-12T02:35:11.154Z,96205.52
2022-12-12T02:37:50.090Z,96201.44
2022-12-12T02:40:40.840Z,96196.83
2022-12-12T02:43:38.025Z,96196.47
2022-12-12T02:46:23.077Z,96199.38
2022-12-12T02:49:08.283Z,96190.99
2022-12-12T02:51:38.260Z,96186.15
2022-12-12T02:54:09.930Z,96192.75
2022-12-12T02:56:48.368Z,96190.63
2022-12-12T02:59:24.041Z,96196.57
2022-12-12T03:02:19.729Z,96202.05
2022-12-12T03:05:29.330Z,96200.09
2022-12-12T03:08:31.510Z,96202.03
2022-12-12T03:11:12.839Z,96206.55
2022-12-12T03:13:56.873Z,96203.27
2022-12-12T03:16:51.261Z,96220.28
2022-12-12T03:19:35.603Z,96213.60
2022-12-12T03:22:30.417Z,96215.17
2022-12-12T03:25:09.511Z,96212.97
2022-12-12T03:27:42.556Z,96217.25
2022-12-12T03:30:15.127Z,96212.97
2022-12-12T03:33:05.762Z,96211.91
2022-12-12T03:35:41.658Z,96210.25
2022-12-12T03:38:28.773Z,96215.83
2022-12-12T03:41:08.797Z,96211.91
2022-12-12T03:43:50.303Z,96210.30
2022-12-12T03:46:26.602Z,96213.60
2022-12-12T03:49:09.820Z,96212.44
2022-12-12T03:51:44.065Z,96202.66
2022-12-12T03:54:22.337Z,96199.13
2022-12-12T03:57:01.012Z,96193.66
2022-12-12T03:59:42.765Z,96191.36
2022-12-12T04:02:34.444Z,96188.19
2022-12-12T04:05:31.994Z,96191.00
2022-12-12T04:08:12.905Z,96204.09
2022-12-12T04:11:04.458Z,96211.47
2022-12-12T04:13:43.540Z,96204.47
2022-12-12T04:16:18.313Z,96207.88
2022-12-12T04:19:09.612Z,96217.55
2022-12-12T04:22:07.628Z,96209.34
2022-12-12T04:24:53.133Z,96218.56
2022-12-12T04:27:28.644Z,96224.83
2022-12-12T04:30:06.787Z,96234.00
2022-12-12T04:32:56.685Z,96233.16
2022-12-12T04:35:31.933Z,96218.31
2022-12-12T04:38:07.735Z,96221.71
2022-12-12T04:40:40.485Z,96220.86
2022-12-12T04:43:33.062Z,96223.34
2022-12-12T04:46:06.190Z,96223.34
2022-12-12T04:48:53.558Z,96235.08
2022-12-12T04:51:35.721Z,96236.41
2022-12-12T04:54:19.759Z,96241.41
2022-12-12T04:56:52.318Z,96249.89
2022-12-12T04:59:20.417Z,96253.90
2022-12-12T05:01:59.446Z,96259.24
2022-12-12T05:04:51.115Z,96261.91
2022-12-12T05:07:40.244Z,96256.57
2022-12-12T05:10:15.406Z,96264.70
2022-12-12T05:12:49.680Z,96260.50
2022-12-12T05:15:20.311Z,96261.17
2022-12-12T05:18:02.203Z,96256.42
2022-12-12T05:20:30.257Z,96251.55
2022-12-12T05:22:57.943Z,96253.64
2022-12-12T05:25:25.611Z,96245.86
2022-12-12T05:27:52.941Z,96257.17
2022-12-12T05:30:21.734Z,96251.08
2022-12-12T05:32:50.154Z,96253.98
2022-12-12T05:35:18.235Z,96261.17
2022-12-12T05:37:51.475Z,96272.69
2022-12-12T05:40:15.603Z,96271.12
2022-12-12T05:42:43.509Z,96273.05
2022-12-12T05:45:13.666Z,96283.69
2022-12-12T05:47:42.043Z,96284.83
2022-12-12T05:50:10.112Z,96288.59
2022-12-12T05:52:37.881Z,96288.83
2022-12-12T05:55:07.006Z,96284.83
2022-12-12T05:57:34.538Z,96292.28
2022-12-12T06:00:04.591Z,96296.61
2022-12-12T06:02:32.688Z,96303.02
2022-12-12T06:05:00.799Z,96308.11
2022-12-12T06:07:28.485Z,96312.44
2022-12-12T06:09:56.072Z,96321.38
2022-12-12T06:12:23.666Z,96324.20
2022-12-12T06:14:51.818Z,96341.66
2022-12-12T06:17:19.441Z,96342.20
2022-12-12T06:19:47.065Z,96340.09
2022-12-12T06:22:15.061Z,96338.75
2022-12-12T06:24:42.911Z,96333.41
2022-12-12T06:27:10.768Z,96340.80
2022-12-12T06:29:38.381Z,96343.98
2022-12-12T06:32:05.997Z,96349.33
2022-12-12T06:34:33.742Z,96349.91
2022-12-12T06:37:01.371Z,96348.09
2022-12-12T06:39:29.189Z,96351.83
2022-12-12T06:41:57.026Z,96365.69
2022-12-12T06:44:26.116Z,96369.45
2022-12-12T06:46:54.342Z,96371.06
2022-12-12T06:49:22.004Z,96365.69
2022-12-12T06:51:49.768Z,96368.05
2022-12-12T06:54:19.054Z,96371.23
2022-12-12T06:56:48.682Z,96370.34
2022-12-12T06:59:17.267Z,96368.31
2022-12-12T07:01:45.825Z,96367.11
2022-12-12T07:04:14.948Z,96367.52
2022-12-12T07:06:42.695Z,96369.25
2022-12-12T07:09:11.500Z,96374.99
2022-12-12T07:11:41.082Z,96369.84
2022-12-12T07:14:09.762Z,96374.02
2022-12-12T07:16:37.718Z,96371.86
2022-12-12T07:19:05.243Z,96367.84
2022-12-12T07:21:32.829Z,96379.56
2022-12-12T07:24:01.940Z,96377.31
2022-12-12T07:26:29.666Z,96371.27
2022-12-12T07:28:57.441Z,96371.58
2022-12-12T07:31:26.195Z,96379.59
2022-12-12T07:33:54.420Z,96382.84
2022-12-12T07:36:22.399Z,96383.78
2022-12-12T07:38:50.363Z,96382.15
2022-12-12T07:41:20.301Z,96387.36
2022-12-12T07:43:49.304Z,96385.03
2022-12-12T07:46:24.353Z,96396.80
2022-12-12T07:48:53.378Z,96398.93
2022-12-12T07:51:22.900Z,96401.80
2022-12-12T07:53:51.807Z,96400.70
2022-12-12T07:56:20.149Z,96399.61
2022-12-12T07:58:48.276Z,96408.38
2022-12-12T08:01:23.765Z,96415.36
2022-12-12T08:03:52.495Z,96414.81
2022-12-12T08:06:22.735Z,96416.15
2022-12-12T08:08:52.358Z,96416.63
2022-12-12T08:11:23.423Z,96420.94
2022-12-12T08:13:52.437Z,96421.48
2022-12-12T08:16:24.217Z,96425.98
2022-12-12T08:18:57.482Z,96423.82
2022-12-12T08:21:27.406Z,96425.09
2022-12-12T08:24:00.841Z,96429.88
2022-12-12T08:26:30.335Z,96437.55
2022-12-12T08:28:59.435Z,96431.22
2022-12-12T08:31:27.618Z,96423.20
2022-12-12T08:33:55.859Z,96427.76
2022-12-12T08:36:30.206Z,96429.61
2022-12-12T08:39:08.488Z,96425.53
2022-12-12T08:41:39.328Z,96422.62
2022-12-12T08:44:09.609Z,96424.50
2022-12-12T08:46:37.939Z,96434.88
2022-12-12T08:49:05.642Z,96439.64
2022-12-12T08:51:33.883Z,96436.22
2022-12-12T08:54:02.804Z,96442.31
2022-12-12T08:56:30.564Z,96432.38
2022-12-12T08:58:59.044Z,96434.19
2022-12-12T09:01:27.577Z,96434.47
2022-12-12T09:03:56.941Z,96433.91
2022-12-12T09:06:26.215Z,96436.04
2022-12-12T09:08:57.028Z,96432.27
2022-12-12T09:11:25.424Z,96427.09
2022-12-12T09:13:53.855Z,96422.73
2022-12-12T09:16:22.775Z,96433.08
2022-12-12T09:18:50.681Z,96434.62
2022-12-12T09:21:18.542Z,96434.78
2022-12-12T09:23:48.406Z,96430.43
2022-12-12T09:26:17.441Z,96436.25
2022-12-12T09:28:45.225Z,96437.75
2022-12-12T09:31:13.790Z,96436.92
2022-12-12T09:33:42.663Z,96434.25
2022-12-12T09:36:12.586Z,96433.66
2022-12-12T09:38:41.393Z,96430.23
2022-12-12T09:41:26.592Z,96434.59
2022-12-12T09:44:10.285Z,96433.06
2022-12-12T09:46:47.825Z,96437.58
2022-12-12T09:49:44.328Z,96432.72
2022-12-12T09:52:29.283Z,96430.83
2022-12-12T09:54:53.963Z,96434.36
2022-12-12T09:57:42.690Z,96425.00
2022-12-12T10:00:14.087Z,96425.24
2022-12-12T10:03:26.931Z,96431.41
2022-12-12T10:06:35.765Z,96426.69
2022-12-12T10:09:10.379Z,96426.93
2022-12-12T10:11:50.465Z,96423.75
2022-12-12T10:14:34.706Z,96421.34
2022-12-12T10:17:07.259Z,96411.72
2022-12-12T10:19:40.455Z,96413.33
2022-12-12T10:22:38.825Z,96416.48
2022-12-12T10:25:23.655Z,96416.72
2022-12-12T10:27:59.310Z,96426.27
2022-12-12T10:30:29.314Z,96428.35
2022-12-12T10:33:08.449Z,96425.37
2022-12-12T10:35:41.524Z,96428.23
2022-12-12T10:38:32.947Z,96422.85
2022-12-12T10:41:07.563Z,96419.03
2022-12-12T10:43:55.307Z,96416.84
2022-12-12T10:46:52.599Z,96411.45
2022-12-12T10:49:24.009Z,96408.97
2022-12-12T10:51:52.857Z,96405.75
2022-12-12T10:54:27.089Z,96398.63
2022-12-12T10:57:21.694Z,96405.86
2022-12-12T10:59:53.477Z,96409.61
2022-12-12T11:02:32.414Z,96401.50
2022-12-12T11:05:09.002Z,96402.16
2022-12-12T11:07:42.001Z,96403.70
2022-12-12T11:10:33.946Z,96409.16
2022-12-12T11:13:13.672Z,96409.66
2022-12-12T11:16:13.439Z,96408.20
2022-12-12T11:18:40.482Z,96403.00
2022-12-12T11:21:13.350Z,96412.12
2022-12-12T11:23:46.376Z,96422.09
2022-12-12T11:26:19.054Z,96432.67
2022-12-12T11:28:57.297Z,96430.73
2022-12-12T11:31:34.130Z,96425.89
2022-12-12T11:34:06.058Z,96429.59
2022-12-12T11:36:40.307Z,96427.46
2022-12-12T11:39:22.448Z,96433.41
2022-12-12T11:42:19.049Z,96433.54
2022-12-12T11:45:02.419Z,96437.05
2022-12-12T11:47:40.340Z,96440.83
2022-12-12T11:50:24.918Z,96437.91
2022-12-12T11:52:57.770Z,96437.41
2022-12-12T11:55:45.986Z,96434.86
2022-12-12T11:58:55.070Z,96437.06
2022-12-12T12:01:48.494Z,96435.30
2022-12-12T12:04:30.910Z,96442.27
2022-12-12T12:07:19.078Z,96443.72
2022-12-12T12:10:33.276Z,96442.15
2022-12-12T12:13:18.383Z,96441.09
2022-12-12T12:16:08.220Z,96447.34
2022-12-12T12:19:17.549Z,96445.03
2022-12-12T12:21:56.199Z,96459.07
2022-12-12T12:24:38.301Z,96455.77
2022-12-12T12:27:20.869Z,96451.80
2022-12-12T12:30:15.401Z,96452.50
2022-12-12T12:33:31.070Z,96461.67
2022-12-12T12:36:24.052Z,96467.17
2022-12-12T12:39:16.283Z,96469.97
2022-12-12T12:41:52.122Z,96475.23
2022-12-12T12:44:49.330Z,96473.54
2022-12-12T12:47:48.580Z,96466.58
2022-12-12T12:50:40.222Z,96482.11
2022-12-12T12:53:22.863Z,96489.09
2022-12-12T12:55:54.985Z,96494.75
2022-12-12T12:58:27.790Z,96491.88
2022-12-12T13:01:15.979Z,96490.03
2022-12-12T13:03:48.986Z,96484.36
2022-12-12T13:06:31.799Z,96498.98
2022-12-12T13:09:27.746Z,96497.36
2022-12-12T13:12:15.993Z,96494.09
2022-12-12T13:14:57.088Z,96498.24
2022-12-12T13:17:37.231Z,96494.20
2022-12-12T13:20:10.811Z,96482.11
2022-12-12T13:23:09.439Z,96488.72
2022-12-12T13:26:00.243Z,96490.73
2022-12-12T13:28:45.130Z,96489.16
2022-12-12T13:31:56.604Z,96484.39
2022-12-12T13:34:28.003Z,96482.78
2022-12-12T13:36:57.251Z,96488.81
2022-12-12T13:39:37.628Z,96485.77
2022-12-12T13:42:11.842Z,96485.13
2022-12-12T13:44:43.664Z,96480.23
2022-12-12T13:47:25.675Z,96481.80
2022-12-12T13:50:07.444Z,96479.92
2022-12-12T13:52:38.387Z,96480.13
2022-12-12T13:55:17.651Z,96492.31
2022-12-12T13:58:04.799Z,96488.51
2022-12-12T14:00:38.510Z,96502.11
2022-12-12T14:03:17.198Z,96502.22
2022-12-12T14:05:48.826Z,96499.38
2022-12-12T14:08:21.437Z,96500.51
2022-12-12T14:11:02.765Z,96493.28
2022-12-12T14:13:39.670Z,96497.15
2022-12-12T14:16:21.057Z,96504.20
2022-12-12T14:18:54.759Z,96509.23
2022-12-12T14:21:42.578Z,96511.02
2022-12-12T14:24:40.649Z,96511.19
2022-12-12T14:27:10.470Z,96509.78
2022-12-12T14:29:44.800Z,96514.30
2022-12-12T14:32:20.693Z,96507.38
2022-12-12T14:35:12.282Z,96511.73
2022-12-12T14:38:12.683Z,96504.30
2022-12-12T14:40:47.433Z,96511.61
2022-12-12T14:43:32.382Z,96518.84
2022-12-12T14:46:01.767Z,96518.25
2022-12-12T14:48:32.536Z,96519.73
2022-12-12T14:51:08.734Z,96517.84
2022-12-12T14:53:47.203Z,96518.05
2022-12-12T14:56:26.266Z,96529.70
2022-12-12T14:59:02.468Z,96545.28
2022-12-12T15:01:44.321Z,96547.69
2022-12-12T15:04:25.063Z,96550.63
2022-12-12T15:06:59.319Z,96546.11
2022-12-12T15:09:34.648Z,96540.73
2022-12-12T15:12:16.191Z,96544.09
2022-12-12T15:14:52.197Z,96552.31
2022-12-12T15:17:40.202Z,96559.00
2022-12-12T15:20:19.201Z,96557.11
2022-12-12T15:23:03.418Z,96557.45
2022-12-12T15:25:36.207Z,96563.00
2022-12-12T15:28:04.051Z,96563.17
2022-12-12T15:30:39.640Z,96561.14
2022-12-12T15:33:17.459Z,96564.84
2022-12-12T15:35:52.284Z,96570.77
2022-12-12T15:38:20.740Z,96560.17
2022-12-12T15:40:56.681Z,96569.11
2022-12-12T15:43:27.542Z,96565.09
2022-12-12T15:46:09.218Z,96561.43
2022-12-12T15:48:36.841Z,96569.72
2022-12-12T15:51:06.908Z,96578.52
2022-12-12T15:53:50.408Z,96578.22
2022-12-12T15:56:23.004Z,96585.44
2022-12-12T15:59:10.914Z,96589.23
2022-12-12T16:01:38.636Z,96590.99
2022-12-12T16:04:11.738Z,96594.00
2022-12-12T16:06:45.417Z,96598.89
2022-12-12T16:09:25.220Z,96598.89
2022-12-12T16:11:58.110Z,96598.01
2022-12-12T16:14:41.220Z,96599.83
2022-12-12T16:17:24.349Z,96596.30
2022-12-12T16:20:08.586Z,96601.83
2022-12-12T16:22:47.815Z,96605.27
2022-12-12T16:25:28.146Z,96612.46
2022-12-12T16:28:09.543Z,96613.00
2022-12-12T16:30:40.924Z,96620.51
2022-12-12T16:33:22.531Z,96624.15
2022-12-12T16:35:50.655Z,96626.14
2022-12-12T16:38:19.131Z,96626.84
2022-12-12T16:40:50.299Z,96621.03
2022-12-12T16:43:20.472Z,96630.14
2022-12-12T16:45:53.524Z,96631.71
2022-12-12T16:48:28.694Z,96639.95
2022-12-12T16:51:03.955Z,96635.55
2022-12-12T16:53:33.563Z,96632.37
2022-12-12T16:56:03.060Z,96640.73
2022-12-12T16:58:32.815Z,96638.58
2022-12-12T17:01:01.200Z,96643.45
2022-12-12T17:03:29.974Z,96638.45
2022-12-12T17:05:58.005Z,96648.17
2022-12-12T17:08:26.835Z,96645.89
2022-12-12T17:11:09.587Z,96646.22
2022-12-12T17:13:25.786Z,96652.78
2022-12-12T17:15:55.381Z,96648.33
2022-12-12T17:18:24.813Z,96653.73
2022-12-12T17:20:52.404Z,96651.18
2022-12-12T17:23:28.191Z,96656.27
2022-12-12T17:26:02.915Z,96660.88
2022-12-12T17:28:25.785Z,96663.30
2022-12-12T17:30:53.603Z,96666.08
2022-12-12T17:33:21.480Z,96667.17
2022-12-12T17:35:59.264Z,96675.41
2022-12-12T17:38:27.096Z,96678.91
2022-12-12T17:40:56.265Z,96682.36
2022-12-12T17:43:25.121Z,96684.73
2022-12-12T17:46:02.884Z,96692.97
2022-12-12T17:48:33.869Z,96701.64
2022-12-12T17:51:05.236Z,96700.44
2022-12-12T17:53:39.029Z,96705.94
2022-12-12T17:56:16.781Z,96713.63
2022-12-12T17:58:46.490Z,96717.14
2022-12-12T18:01:21.941Z,96729.94
2022-12-12T18:03:50.355Z,96737.20
2022-12-12T18:06:20.843Z,96735.98
2022-12-12T18:08:50.481Z,96753.30
2022-12-12T18:11:26.685Z,96748.52
2022-12-12T18:13:57.998Z,96750.49
2022-12-12T18:16:28.835Z,96753.45
2022-12-12T18:18:58.111Z,96763.91
2022-12-12T18:24:01.757Z,96767.91
2022-12-12T18:26:29.556Z,96774.80
2022-12-12T18:29:01.730Z,96775.88
2022-12-12T18:31:30.940Z,96775.88
2022-12-12T18:33:59.073Z,96777.75
2022-12-12T18:36:30.210Z,96795.11
2022-12-12T18:39:00.478Z,96810.62
2022-12-12T18:41:30.337Z,96810.62
2022-12-12T18:43:58.294Z,96814.33
2022-12-12T18:46:27.104Z,96818.83
2022-12-12T18:48:56.560Z,96823.62
2022-12-12T18:51:26.810Z,96826.50
2022-12-12T18:54:02.119Z,96821.95
2022-12-12T18:56:31.027Z,96832.58
2022-12-12T18:59:00.564Z,96832.83
2022-12-12T19:01:32.393Z,96838.66
2022-12-12T19:04:07.347Z,96845.03
2022-12-12T19:06:35.529Z,96848.77
2022-12-12T19:09:16.514Z,96854.69
2022-12-12T19:11:46.756Z,96855.51
2022-12-12T19:14:16.047Z,96854.43
2022-12-12T19:16:44.745Z,96864.83
2022-12-12T19:19:13.268Z,96867.75
2022-12-12T19:21:43.299Z,96870.66
2022-12-12T19:24:14.000Z,96874.09
2022-12-12T19:26:43.920Z,96875.95
2022-12-12T19:29:16.645Z,96873.83
2022-12-12T19:31:45.102Z,96881.29
2022-12-12T19:34:16.475Z,96880.53
2022-12-12T19:36:44.639Z,96889.06
2022-12-12T19:39:13.194Z,96890.90
2022-12-12T19:41:41.238Z,96890.36
2022-12-12T19:44:12.342Z,96895.44
2022-12-12T19:46:43.250Z,96902.61
2022-12-12T19:49:16.318Z,96898.86
2022-12-12T19:51:45.199Z,96897.78
2022-12-12T19:54:19.560Z,96905.78
2022-12-12T19:56:47.433Z,96900.73
2022-12-12T19:59:17.787Z,96910.88
2022-12-12T20:01:46.666Z,96917.06
2022-12-12T20:04:19.341Z,96918.44
2022-12-12T20:06:49.160Z,96916.62
2022-12-12T20:09:25.660Z,96919.28
2022-12-12T20:11:54.955Z,96922.47
2022-12-12T20:14:30.776Z,96923.28
2022-12-12T20:16:59.434Z,96923.28
2022-12-12T20:19:27.476Z,96926.23
2022-12-12T20:22:03.817Z,96931.53
2022-12-12T20:24:25.660Z,96944.30
2022-12-12T20:26:54.955Z,96947.27
2022-12-12T20:29:23.203Z,96948.34
2022-12-12T20:31:51.554Z,96948.34
2022-12-12T20:34:23.954Z,96948.06
2022-12-12T20:36:54.041Z,96945.41
2022-12-12T20:39:22.226Z,96938.20
2022-12-12T20:41:50.390Z,96950.19
2022-12-12T20:44:18.159Z,96954.95
2022-12-12T20:46:46.510Z,96950.95
2022-12-12T20:49:17.585Z,96958.42
2022-12-12T20:52:00.930Z,96956.33
2022-12-12T20:54:16.610Z,96949.39
2022-12-12T20:56:46.355Z,96949.44
2022-12-12T20:59:13.748Z,96954.75
2022-12-12T21:01:41.564Z,96959.81
2022-12-12T21:04:09.727Z,96959.27
2022-12-12T21:06:40.706Z,96960.33
2022-12-12T21:09:10.565Z,96965.67
2022-12-12T21:11:38.928Z,96964.33
2022-12-12T21:14:06.931Z,96978.17
2022-12-12T21:16:38.248Z,96978.41
2022-12-12T21:19:10.873Z,96976.01
2022-12-12T21:21:40.941Z,96978.96
2022-12-12T21:24:11.993Z,96981.63
2022-12-12T21:26:39.694Z,96984.28
2022-12-12T21:29:07.985Z,96986.16
2022-12-12T21:31:46.356Z,96985.09
2022-12-12T21:34:11.017Z,96985.09
2022-12-12T21:36:38.661Z,96987.22
2022-12-12T21:39:07.618Z,96987.73
2022-12-12T21:41:35.261Z,96985.86
2022-12-12T21:44:03.579Z,96983.74
2022-12-12T21:46:31.222Z,96989.59
2022-12-12T21:49:16.671Z,96989.08
2022-12-12T21:51:44.998Z,96987.46
2022-12-12T21:54:14.811Z,96992.01
2022-12-12T21:56:42.839Z,96997.87
2022-12-12T21:59:12.765Z,97007.69
2022-12-12T22:01:41.556Z,97001.85
2022-12-12T22:04:12.030Z,96999.97
2022-12-12T22:06:40.140Z,96997.59
2022-12-12T22:09:10.089Z,97004.77
2022-12-12T22:11:40.000Z,96997.05
2022-12-12T22:14:09.710Z,96990.14
2022-12-12T22:16:38.263Z,96994.39
2022-12-12T22:19:12.929Z,96998.13
2022-12-12T22:21:41.152Z,96999.73
2022-12-12T22:24:09.258Z,96997.86
2022-12-12T22:26:40.709Z,97002.65
2022-12-12T22:29:12.976Z,97003.45
2022-12-12T22:31:42.692Z,97001.85
2022-12-12T22:34:15.147Z,96995.73
2022-12-12T22:36:44.635Z,97001.83
2022-12-12T22:39:24.527Z,96995.99
2022-12-12T22:41:52.769Z,96998.66
2022-12-12T22:44:22.833Z,96995.99
2022-12-12T22:46:52.924Z,96992.52
2022-12-12T22:49:27.218Z,96992.53
2022-12-12T22:51:57.673Z,96992.80
2022-12-12T22:54:26.557Z,96998.13
2022-12-12T22:56:54.187Z,96986.67
2022-12-12T22:59:21.897Z,96981.89
2022-12-12T23:01:49.660Z,96981.89
2022-12-12T23:04:17.474Z,96980.30
2022-12-12T23:06:45.324Z,96985.88
2022-12-12T23:09:22.376Z,96992.80
2022-12-12T23:11:49.971Z,96990.41
2022-12-12T23:14:22.185Z,96994.92
2022-12-12T23:16:51.282Z,96992.01
2022-12-12T23:19:25.064Z,96999.70
2022-12-12T23:21:52.534Z,96997.32
2022-12-12T23:24:20.260Z,96993.59
2022-12-12T23:26:50.943Z,96993.58
2022-12-12T23:29:19.776Z,96991.98
2022-12-12T23:31:47.935Z,96985.34
2022-12-12T23:34:21.787Z,96987.45
2022-12-12T23:36:51.878Z,96988.00
2022-12-12T23:39:19.531Z,96997.29
2022-12-12T23:41:47.067Z,96999.41
2022-12-12T23:44:17.648Z,96997.56
2022-12-12T23:46:45.681Z,97004.99
2022-12-12T23:49:18.428Z,97002.85
2022-12-12T23:51:52.916Z,97001.27
2022-12-12T23:54:27.380Z,97000.20
2022-12-12T23:56:55.550Z,96997.83
2022-12-12T23:59:26.614Z,96995.41
